sensor_id;sensor_type;location;lat;lon;timestamp;P1;durP1;ratioP1;P2;durP2;ratioP2
51034;SDS011;37062;52.546;13.230;2023-05-07T00:01:48;14.18;;;11.88;;
51034;SDS011;37062;52.546;13.230;2023-05-07T00:04:17;13.73;;;10.65;;
51034;SDS011;37062;52.546;13.230;2023-05-07T00:06:46;14.73;;;10.43;;
51034;SDS011;37062;52.546;13.230;2023-05-07T00:09:14;13.00;;;11.02;;
51034;SDS011;37062;52.546;13.230;2023-05-07T00:11:42;15.05;;;11.73;;
51034;SDS011;37062;52.546;13.230;2023-05-07T00:14:11;14.63;;;11.32;;
51034;SDS011;37062;52.546;13.230;2023-05-07T00:16:40;14.65;;;11.68;;
51034;SDS011;37062;52.546;13.230;2023-05-07T00:19:08;13.40;;;10.63;;
51034;SDS011;37062;52.546;13.230;2023-05-07T00:21:37;13.55;;;10.45;;
51034;SDS011;37062;52.546;13.230;2023-05-07T00:24:05;12.00;;;10.50;;
51034;SDS011;37062;52.546;13.230;2023-05-07T00:26:34;11.68;;;9.70;;
51034;SDS011;37062;52.546;13.230;2023-05-07T00:29:02;12.68;;;9.60;;
51034;SDS011;37062;52.546;13.230;2023-05-07T00:31:30;11.85;;;10.10;;
51034;SDS011;37062;52.546;13.230;2023-05-07T00:34:00;12.75;;;9.70;;
51034;SDS011;37062;52.546;13.230;2023-05-07T00:36:28;11.48;;;9.70;;
51034;SDS011;37062;52.546;13.230;2023-05-07T00:38:56;12.40;;;10.10;;
51034;SDS011;37062;52.546;13.230;2023-05-07T00:41:26;13.48;;;9.45;;
51034;SDS011;37062;52.546;13.230;2023-05-07T00:43:55;12.15;;;10.23;;
51034;SDS011;37062;52.546;13.230;2023-05-07T00:46:23;13.27;;;10.05;;
51034;SDS011;37062;52.546;13.230;2023-05-07T00:48:52;10.88;;;8.88;;
51034;SDS011;37062;52.546;13.230;2023-05-07T00:51:23;11.85;;;8.30;;
51034;SDS011;37062;52.546;13.230;2023-05-07T00:53:53;11.02;;;9.00;;
51034;SDS011;37062;52.546;13.230;2023-05-07T00:56:22;12.48;;;9.43;;
51034;SDS011;37062;52.546;13.230;2023-05-07T00:58:52;10.70;;;8.13;;
51034;SDS011;37062;52.546;13.230;2023-05-07T01:01:20;8.77;;;7.88;;
51034;SDS011;37062;52.546;13.230;2023-05-07T01:03:49;10.23;;;8.70;;
51034;SDS011;37062;52.546;13.230;2023-05-07T01:06:17;11.10;;;8.93;;
51034;SDS011;37062;52.546;13.230;2023-05-07T01:08:49;10.77;;;8.93;;
51034;SDS011;37062;52.546;13.230;2023-05-07T01:11:19;10.45;;;8.85;;
51034;SDS011;37062;52.546;13.230;2023-05-07T01:13:48;9.73;;;8.73;;
51034;SDS011;37062;52.546;13.230;2023-05-07T01:16:18;11.68;;;9.05;;
51034;SDS011;37062;52.546;13.230;2023-05-07T01:18:46;12.55;;;9.50;;
51034;SDS011;37062;52.546;13.230;2023-05-07T01:21:15;11.95;;;8.75;;
51034;SDS011;37062;52.546;13.230;2023-05-07T01:23:47;11.55;;;9.13;;
51034;SDS011;37062;52.546;13.230;2023-05-07T01:26:15;12.02;;;8.40;;
51034;SDS011;37062;52.546;13.230;2023-05-07T01:28:46;12.30;;;9.50;;
51034;SDS011;37062;52.546;13.230;2023-05-07T01:31:14;10.90;;;8.63;;
51034;SDS011;37062;52.546;13.230;2023-05-07T01:33:44;11.45;;;9.40;;
51034;SDS011;37062;52.546;13.230;2023-05-07T01:36:15;8.40;;;7.57;;
51034;SDS011;37062;52.546;13.230;2023-05-07T01:38:48;9.52;;;7.85;;
51034;SDS011;37062;52.546;13.230;2023-05-07T01:41:16;11.27;;;8.43;;
51034;SDS011;37062;52.546;13.230;2023-05-07T01:43:45;10.73;;;8.90;;
51034;SDS011;37062;52.546;13.230;2023-05-07T01:46:14;9.57;;;8.68;;
51034;SDS011;37062;52.546;13.230;2023-05-07T01:48:44;11.43;;;8.68;;
51034;SDS011;37062;52.546;13.230;2023-05-07T01:51:13;9.95;;;8.18;;
51034;SDS011;37062;52.546;13.230;2023-05-07T01:53:41;9.73;;;8.73;;
51034;SDS011;37062;52.546;13.230;2023-05-07T01:56:13;11.85;;;9.05;;
51034;SDS011;37062;52.546;13.230;2023-05-07T01:58:42;12.10;;;8.95;;
51034;SDS011;37062;52.546;13.230;2023-05-07T02:01:10;10.02;;;8.32;;
51034;SDS011;37062;52.546;13.230;2023-05-07T02:03:38;9.18;;;7.55;;
51034;SDS011;37062;52.546;13.230;2023-05-07T02:06:15;9.63;;;7.70;;
51034;SDS011;37062;52.546;13.230;2023-05-07T02:08:43;8.30;;;6.82;;
51034;SDS011;37062;52.546;13.230;2023-05-07T02:11:15;10.82;;;8.18;;
51034;SDS011;37062;52.546;13.230;2023-05-07T02:13:43;10.02;;;8.15;;
51034;SDS011;37062;52.546;13.230;2023-05-07T02:16:11;9.60;;;7.53;;
51034;SDS011;37062;52.546;13.230;2023-05-07T02:18:40;9.23;;;8.32;;
51034;SDS011;37062;52.546;13.230;2023-05-07T02:21:08;10.45;;;8.18;;
51034;SDS011;37062;52.546;13.230;2023-05-07T02:23:37;10.35;;;8.38;;
51034;SDS011;37062;52.546;13.230;2023-05-07T02:26:05;9.90;;;8.88;;
51034;SDS011;37062;52.546;13.230;2023-05-07T02:28:35;13.30;;;9.95;;
51034;SDS011;37062;52.546;13.230;2023-05-07T02:31:04;11.77;;;8.23;;
51034;SDS011;37062;52.546;13.230;2023-05-07T02:33:34;12.88;;;9.10;;
51034;SDS011;37062;52.546;13.230;2023-05-07T02:36:06;11.20;;;9.18;;
51034;SDS011;37062;52.546;13.230;2023-05-07T02:38:39;13.00;;;9.27;;
51034;SDS011;37062;52.546;13.230;2023-05-07T02:41:07;14.35;;;10.02;;
51034;SDS011;37062;52.546;13.230;2023-05-07T02:43:37;11.95;;;10.20;;
51034;SDS011;37062;52.546;13.230;2023-05-07T02:46:06;11.38;;;9.05;;
51034;SDS011;37062;52.546;13.230;2023-05-07T02:48:40;10.68;;;9.43;;
51034;SDS011;37062;52.546;13.230;2023-05-07T02:51:08;11.25;;;9.23;;
51034;SDS011;37062;52.546;13.230;2023-05-07T02:53:39;12.57;;;9.85;;
51034;SDS011;37062;52.546;13.230;2023-05-07T02:56:07;13.68;;;9.45;;
51034;SDS011;37062;52.546;13.230;2023-05-07T02:58:35;12.20;;;9.45;;
51034;SDS011;37062;52.546;13.230;2023-05-07T03:01:07;11.82;;;9.63;;
51034;SDS011;37062;52.546;13.230;2023-05-07T03:03:47;12.38;;;9.27;;
51034;SDS011;37062;52.546;13.230;2023-05-07T03:06:15;14.38;;;10.00;;
51034;SDS011;37062;52.546;13.230;2023-05-07T03:08:43;10.98;;;9.70;;
51034;SDS011;37062;52.546;13.230;2023-05-07T03:11:11;13.07;;;9.60;;
51034;SDS011;37062;52.546;13.230;2023-05-07T03:13:40;11.32;;;9.10;;
51034;SDS011;37062;52.546;13.230;2023-05-07T03:16:10;12.35;;;9.30;;
51034;SDS011;37062;52.546;13.230;2023-05-07T03:18:38;11.27;;;9.52;;
51034;SDS011;37062;52.546;13.230;2023-05-07T03:21:06;13.77;;;9.90;;
51034;SDS011;37062;52.546;13.230;2023-05-07T03:23:35;11.45;;;9.27;;
51034;SDS011;37062;52.546;13.230;2023-05-07T03:26:03;10.15;;;8.65;;
51034;SDS011;37062;52.546;13.230;2023-05-07T03:28:31;12.48;;;8.75;;
51034;SDS011;37062;52.546;13.230;2023-05-07T03:31:03;11.55;;;8.73;;
51034;SDS011;37062;52.546;13.230;2023-05-07T03:33:34;11.38;;;9.07;;
51034;SDS011;37062;52.546;13.230;2023-05-07T03:36:02;10.98;;;8.00;;
51034;SDS011;37062;52.546;13.230;2023-05-07T03:38:32;11.85;;;8.60;;
51034;SDS011;37062;52.546;13.230;2023-05-07T03:41:00;11.45;;;8.85;;
51034;SDS011;37062;52.546;13.230;2023-05-07T03:43:29;8.45;;;7.40;;
51034;SDS011;37062;52.546;13.230;2023-05-07T03:46:04;9.48;;;7.55;;
51034;SDS011;37062;52.546;13.230;2023-05-07T03:48:33;9.45;;;8.45;;
51034;SDS011;37062;52.546;13.230;2023-05-07T03:51:02;10.00;;;8.30;;
51034;SDS011;37062;52.546;13.230;2023-05-07T03:53:32;12.02;;;9.32;;
51034;SDS011;37062;52.546;13.230;2023-05-07T03:56:00;10.55;;;8.27;;
51034;SDS011;37062;52.546;13.230;2023-05-07T03:58:33;9.93;;;8.30;;
51034;SDS011;37062;52.546;13.230;2023-05-07T04:01:06;8.57;;;7.43;;
51034;SDS011;37062;52.546;13.230;2023-05-07T04:03:35;9.07;;;7.45;;
51034;SDS011;37062;52.546;13.230;2023-05-07T04:06:04;8.60;;;7.65;;
51034;SDS011;37062;52.546;13.230;2023-05-07T04:08:34;9.65;;;8.38;;
51034;SDS011;37062;52.546;13.230;2023-05-07T04:11:03;8.65;;;7.75;;
51034;SDS011;37062;52.546;13.230;2023-05-07T04:13:34;9.27;;;7.57;;
51034;SDS011;37062;52.546;13.230;2023-05-07T04:16:04;10.30;;;7.28;;
51034;SDS011;37062;52.546;13.230;2023-05-07T04:18:36;10.55;;;7.18;;
51034;SDS011;37062;52.546;13.230;2023-05-07T04:21:05;9.48;;;7.30;;
51034;SDS011;37062;52.546;13.230;2023-05-07T04:23:36;7.85;;;7.03;;
51034;SDS011;37062;52.546;13.230;2023-05-07T04:26:08;7.72;;;6.85;;
51034;SDS011;37062;52.546;13.230;2023-05-07T04:28:40;9.45;;;6.90;;
51034;SDS011;37062;52.546;13.230;2023-05-07T04:31:08;8.65;;;6.85;;
51034;SDS011;37062;52.546;13.230;2023-05-07T04:33:38;10.02;;;7.03;;
51034;SDS011;37062;52.546;13.230;2023-05-07T04:36:10;7.40;;;6.15;;
51034;SDS011;37062;52.546;13.230;2023-05-07T04:38:46;7.13;;;6.43;;
51034;SDS011;37062;52.546;13.230;2023-05-07T04:41:16;7.20;;;5.95;;
51034;SDS011;37062;52.546;13.230;2023-05-07T04:43:45;9.60;;;7.45;;
51034;SDS011;37062;52.546;13.230;2023-05-07T04:46:14;8.13;;;6.97;;
51034;SDS011;37062;52.546;13.230;2023-05-07T04:48:45;8.57;;;6.65;;
51034;SDS011;37062;52.546;13.230;2023-05-07T04:51:13;7.65;;;6.72;;
51034;SDS011;37062;52.546;13.230;2023-05-07T04:53:41;8.93;;;7.07;;
51034;SDS011;37062;52.546;13.230;2023-05-07T04:56:10;7.55;;;6.75;;
51034;SDS011;37062;52.546;13.230;2023-05-07T04:58:41;7.60;;;6.80;;
51034;SDS011;37062;52.546;13.230;2023-05-07T05:01:10;10.73;;;7.63;;
51034;SDS011;37062;52.546;13.230;2023-05-07T05:03:39;7.53;;;6.55;;
51034;SDS011;37062;52.546;13.230;2023-05-07T05:06:09;8.38;;;6.53;;
51034;SDS011;37062;52.546;13.230;2023-05-07T05:08:37;7.30;;;6.07;;
51034;SDS011;37062;52.546;13.230;2023-05-07T05:11:06;9.80;;;6.63;;
51034;SDS011;37062;52.546;13.230;2023-05-07T05:13:35;6.68;;;5.90;;
51034;SDS011;37062;52.546;13.230;2023-05-07T05:16:10;7.80;;;6.05;;
51034;SDS011;37062;52.546;13.230;2023-05-07T05:18:39;7.45;;;6.32;;
51034;SDS011;37062;52.546;13.230;2023-05-07T05:21:14;6.47;;;5.63;;
51034;SDS011;37062;52.546;13.230;2023-05-07T05:23:45;6.75;;;6.05;;
51034;SDS011;37062;52.546;13.230;2023-05-07T05:26:17;6.18;;;5.50;;
51034;SDS011;37062;52.546;13.230;2023-05-07T05:28:47;6.10;;;5.50;;
51034;SDS011;37062;52.546;13.230;2023-05-07T05:31:18;11.07;;;5.85;;
51034;SDS011;37062;52.546;13.230;2023-05-07T05:33:49;7.47;;;6.07;;
51034;SDS011;37062;52.546;13.230;2023-05-07T05:36:18;6.28;;;5.07;;
51034;SDS011;37062;52.546;13.230;2023-05-07T05:38:48;7.53;;;5.85;;
51034;SDS011;37062;52.546;13.230;2023-05-07T05:41:17;6.05;;;5.07;;
51034;SDS011;37062;52.546;13.230;2023-05-07T05:43:45;8.43;;;5.35;;
51034;SDS011;37062;52.546;13.230;2023-05-07T05:46:14;7.40;;;5.57;;
51034;SDS011;37062;52.546;13.230;2023-05-07T05:48:43;9.43;;;6.00;;
51034;SDS011;37062;52.546;13.230;2023-05-07T05:51:13;9.23;;;5.75;;
51034;SDS011;37062;52.546;13.230;2023-05-07T05:53:43;5.68;;;5.10;;
51034;SDS011;37062;52.546;13.230;2023-05-07T05:56:12;8.15;;;5.60;;
51034;SDS011;37062;52.546;13.230;2023-05-07T05:58:40;6.68;;;5.20;;
51034;SDS011;37062;52.546;13.230;2023-05-07T06:01:09;6.07;;;5.10;;
51034;SDS011;37062;52.546;13.230;2023-05-07T06:03:38;6.03;;;5.43;;
51034;SDS011;37062;52.546;13.230;2023-05-07T06:06:12;8.73;;;6.82;;
51034;SDS011;37062;52.546;13.230;2023-05-07T06:08:42;8.27;;;6.13;;
51034;SDS011;37062;52.546;13.230;2023-05-07T06:11:16;8.75;;;6.03;;
51034;SDS011;37062;52.546;13.230;2023-05-07T06:13:45;7.85;;;6.55;;
51034;SDS011;37062;52.546;13.230;2023-05-07T06:16:14;7.53;;;5.85;;
51034;SDS011;37062;52.546;13.230;2023-05-07T06:18:43;6.10;;;5.45;;
51034;SDS011;37062;52.546;13.230;2023-05-07T06:21:14;6.78;;;5.40;;
51034;SDS011;37062;52.546;13.230;2023-05-07T06:23:44;7.55;;;5.18;;
51034;SDS011;37062;52.546;13.230;2023-05-07T06:26:13;6.60;;;5.43;;
51034;SDS011;37062;52.546;13.230;2023-05-07T06:28:45;8.32;;;4.90;;
51034;SDS011;37062;52.546;13.230;2023-05-07T06:31:15;6.25;;;4.90;;
51034;SDS011;37062;52.546;13.230;2023-05-07T06:34:00;7.03;;;5.45;;
51034;SDS011;37062;52.546;13.230;2023-05-07T06:36:35;7.22;;;5.00;;
51034;SDS011;37062;52.546;13.230;2023-05-07T06:39:23;6.95;;;5.68;;
51034;SDS011;37062;52.546;13.230;2023-05-07T06:41:52;6.22;;;5.63;;
51034;SDS011;37062;52.546;13.230;2023-05-07T06:44:25;6.00;;;5.18;;
51034;SDS011;37062;52.546;13.230;2023-05-07T06:47:03;7.63;;;5.50;;
51034;SDS011;37062;52.546;13.230;2023-05-07T06:49:33;6.78;;;5.93;;
51034;SDS011;37062;52.546;13.230;2023-05-07T06:52:01;8.05;;;5.72;;
51034;SDS011;37062;52.546;13.230;2023-05-07T06:54:31;6.38;;;5.68;;
51034;SDS011;37062;52.546;13.230;2023-05-07T06:56:59;9.20;;;5.95;;
51034;SDS011;37062;52.546;13.230;2023-05-07T06:59:30;9.15;;;5.55;;
51034;SDS011;37062;52.546;13.230;2023-05-07T07:01:58;6.68;;;5.95;;
51034;SDS011;37062;52.546;13.230;2023-05-07T07:04:27;6.78;;;5.60;;
51034;SDS011;37062;52.546;13.230;2023-05-07T07:07:02;9.40;;;5.15;;
51034;SDS011;37062;52.546;13.230;2023-05-07T07:09:32;6.18;;;5.53;;
51034;SDS011;37062;52.546;13.230;2023-05-07T07:12:02;8.15;;;5.32;;
51034;SDS011;37062;52.546;13.230;2023-05-07T07:14:32;7.70;;;5.22;;
51034;SDS011;37062;52.546;13.230;2023-05-07T07:17:00;6.10;;;5.28;;
51034;SDS011;37062;52.546;13.230;2023-05-07T07:19:28;5.60;;;4.97;;
51034;SDS011;37062;52.546;13.230;2023-05-07T07:21:57;5.80;;;4.70;;
51034;SDS011;37062;52.546;13.230;2023-05-07T07:24:26;5.00;;;4.47;;
51034;SDS011;37062;52.546;13.230;2023-05-07T07:27:02;5.40;;;4.35;;
51034;SDS011;37062;52.546;13.230;2023-05-07T07:29:33;6.88;;;4.60;;
51034;SDS011;37062;52.546;13.230;2023-05-07T07:32:02;5.22;;;4.18;;
51034;SDS011;37062;52.546;13.230;2023-05-07T07:34:31;5.70;;;4.25;;
51034;SDS011;37062;52.546;13.230;2023-05-07T07:37:00;4.43;;;3.97;;
51034;SDS011;37062;52.546;13.230;2023-05-07T07:39:34;4.72;;;3.85;;
51034;SDS011;37062;52.546;13.230;2023-05-07T07:42:09;4.00;;;3.60;;
51034;SDS011;37062;52.546;13.230;2023-05-07T07:44:38;3.80;;;3.40;;
51034;SDS011;37062;52.546;13.230;2023-05-07T07:47:10;5.68;;;3.63;;
51034;SDS011;37062;52.546;13.230;2023-05-07T07:49:40;4.10;;;3.35;;
51034;SDS011;37062;52.546;13.230;2023-05-07T07:52:10;5.25;;;3.78;;
51034;SDS011;37062;52.546;13.230;2023-05-07T07:54:41;6.45;;;3.38;;
51034;SDS011;37062;52.546;13.230;2023-05-07T07:57:10;5.68;;;3.35;;
51034;SDS011;37062;52.546;13.230;2023-05-07T07:59:39;3.60;;;3.28;;
51034;SDS011;37062;52.546;13.230;2023-05-07T08:02:10;3.22;;;2.75;;
51034;SDS011;37062;52.546;13.230;2023-05-07T08:04:39;3.95;;;2.92;;
51034;SDS011;37062;52.546;13.230;2023-05-07T08:07:11;6.32;;;2.95;;
51034;SDS011;37062;52.546;13.230;2023-05-07T08:09:42;3.53;;;3.22;;
51034;SDS011;37062;52.546;13.230;2023-05-07T08:12:12;3.42;;;2.88;;
51034;SDS011;37062;52.546;13.230;2023-05-07T08:14:41;3.85;;;3.05;;
51034;SDS011;37062;52.546;13.230;2023-05-07T08:17:10;2.92;;;2.63;;
51034;SDS011;37062;52.546;13.230;2023-05-07T08:19:39;3.15;;;2.55;;
51034;SDS011;37062;52.546;13.230;2023-05-07T08:22:10;2.95;;;2.63;;
51034;SDS011;37062;52.546;13.230;2023-05-07T08:24:39;4.38;;;2.60;;
51034;SDS011;37062;52.546;13.230;2023-05-07T08:27:08;3.90;;;2.42;;
51034;SDS011;37062;52.546;13.230;2023-05-07T08:29:40;3.80;;;2.60;;
51034;SDS011;37062;52.546;13.230;2023-05-07T08:32:09;3.35;;;2.50;;
51034;SDS011;37062;52.546;13.230;2023-05-07T08:34:37;3.30;;;2.40;;
51034;SDS011;37062;52.546;13.230;2023-05-07T08:37:06;3.35;;;2.40;;
51034;SDS011;37062;52.546;13.230;2023-05-07T08:39:35;4.20;;;2.72;;
51034;SDS011;37062;52.546;13.230;2023-05-07T08:42:08;7.57;;;2.55;;
51034;SDS011;37062;52.546;13.230;2023-05-07T08:44:38;4.45;;;2.28;;
51034;SDS011;37062;52.546;13.230;2023-05-07T08:47:14;3.75;;;2.00;;
51034;SDS011;37062;52.546;13.230;2023-05-07T08:49:44;4.25;;;2.85;;
51034;SDS011;37062;52.546;13.230;2023-05-07T08:52:13;2.83;;;2.40;;
51034;SDS011;37062;52.546;13.230;2023-05-07T08:54:44;3.88;;;2.83;;
51034;SDS011;37062;52.546;13.230;2023-05-07T08:57:13;3.80;;;2.60;;
51034;SDS011;37062;52.546;13.230;2023-05-07T08:59:44;2.25;;;2.05;;
51034;SDS011;37062;52.546;13.230;2023-05-07T09:02:13;3.17;;;2.40;;
51034;SDS011;37062;52.546;13.230;2023-05-07T09:04:42;2.33;;;2.10;;
51034;SDS011;37062;52.546;13.230;2023-05-07T09:07:11;2.83;;;2.15;;
51034;SDS011;37062;52.546;13.230;2023-05-07T09:09:43;3.58;;;2.55;;
51034;SDS011;37062;52.546;13.230;2023-05-07T09:12:13;2.50;;;2.30;;
51034;SDS011;37062;52.546;13.230;2023-05-07T09:14:44;3.17;;;2.50;;
51034;SDS011;37062;52.546;13.230;2023-05-07T09:17:14;2.50;;;2.30;;
51034;SDS011;37062;52.546;13.230;2023-05-07T09:19:43;6.07;;;2.40;;
51034;SDS011;37062;52.546;13.230;2023-05-07T09:22:14;4.28;;;2.47;;
51034;SDS011;37062;52.546;13.230;2023-05-07T09:24:51;3.78;;;2.50;;
51034;SDS011;37062;52.546;13.230;2023-05-07T09:27:23;3.13;;;2.63;;
51034;SDS011;37062;52.546;13.230;2023-05-07T09:29:56;3.60;;;2.40;;
51034;SDS011;37062;52.546;13.230;2023-05-07T09:32:25;4.55;;;2.85;;
51034;SDS011;37062;52.546;13.230;2023-05-07T09:34:54;4.30;;;2.75;;
51034;SDS011;37062;52.546;13.230;2023-05-07T09:37:25;4.28;;;2.60;;
51034;SDS011;37062;52.546;13.230;2023-05-07T09:39:54;2.63;;;2.35;;
51034;SDS011;37062;52.546;13.230;2023-05-07T09:42:23;5.22;;;2.97;;
51034;SDS011;37062;52.546;13.230;2023-05-07T09:44:57;2.97;;;2.33;;
51034;SDS011;37062;52.546;13.230;2023-05-07T09:47:32;3.45;;;2.88;;
51034;SDS011;37062;52.546;13.230;2023-05-07T09:50:06;3.15;;;2.53;;
51034;SDS011;37062;52.546;13.230;2023-05-07T09:52:38;3.00;;;2.22;;
51034;SDS011;37062;52.546;13.230;2023-05-07T09:55:09;4.13;;;2.55;;
51034;SDS011;37062;52.546;13.230;2023-05-07T09:57:38;2.85;;;2.33;;
51034;SDS011;37062;52.546;13.230;2023-05-07T10:00:14;3.03;;;2.63;;
51034;SDS011;37062;52.546;13.230;2023-05-07T10:02:46;2.97;;;2.67;;
51034;SDS011;37062;52.546;13.230;2023-05-07T10:05:19;3.67;;;2.55;;
51034;SDS011;37062;52.546;13.230;2023-05-07T10:07:48;4.35;;;2.70;;
51034;SDS011;37062;52.546;13.230;2023-05-07T10:10:20;2.95;;;2.65;;
51034;SDS011;37062;52.546;13.230;2023-05-07T10:12:49;3.83;;;2.90;;
51034;SDS011;37062;52.546;13.230;2023-05-07T10:15:28;3.53;;;2.60;;
51034;SDS011;37062;52.546;13.230;2023-05-07T10:17:58;2.75;;;2.22;;
51034;SDS011;37062;52.546;13.230;2023-05-07T10:20:28;5.50;;;3.03;;
51034;SDS011;37062;52.546;13.230;2023-05-07T10:22:57;3.63;;;2.63;;
51034;SDS011;37062;52.546;13.230;2023-05-07T10:25:34;2.78;;;2.33;;
51034;SDS011;37062;52.546;13.230;2023-05-07T10:28:10;2.53;;;2.05;;
51034;SDS011;37062;52.546;13.230;2023-05-07T10:30:48;3.47;;;2.35;;
51034;SDS011;37062;52.546;13.230;2023-05-07T10:33:34;2.78;;;2.22;;
51034;SDS011;37062;52.546;13.230;2023-05-07T10:36:04;3.10;;;2.28;;
51034;SDS011;37062;52.546;13.230;2023-05-07T10:38:34;2.97;;;1.95;;
51034;SDS011;37062;52.546;13.230;2023-05-07T10:41:04;3.38;;;2.10;;
51034;SDS011;37062;52.546;13.230;2023-05-07T10:43:38;2.60;;;1.90;;
51034;SDS011;37062;52.546;13.230;2023-05-07T10:46:13;2.60;;;1.98;;
51034;SDS011;37062;52.546;13.230;2023-05-07T10:49:08;3.08;;;2.03;;
51034;SDS011;37062;52.546;13.230;2023-05-07T10:55:19;4.15;;;2.10;;
51034;SDS011;37062;52.546;13.230;2023-05-07T11:04:30;1.83;;;1.70;;
51034;SDS011;37062;52.546;13.230;2023-05-07T11:07:28;3.03;;;1.80;;
51034;SDS011;37062;52.546;13.230;2023-05-07T11:10:05;2.60;;;1.60;;
51034;SDS011;37062;52.546;13.230;2023-05-07T11:12:54;2.20;;;1.80;;
51034;SDS011;37062;52.546;13.230;2023-05-07T11:15:40;2.45;;;1.88;;
51034;SDS011;37062;52.546;13.230;2023-05-07T11:21:32;3.25;;;1.55;;
51034;SDS011;37062;52.546;13.230;2023-05-07T11:24:09;2.80;;;1.73;;
51034;SDS011;37062;52.546;13.230;2023-05-07T11:26:52;2.83;;;1.75;;
51034;SDS011;37062;52.546;13.230;2023-05-07T11:29:22;2.20;;;1.70;;
51034;SDS011;37062;52.546;13.230;2023-05-07T11:31:56;2.22;;;1.92;;
51034;SDS011;37062;52.546;13.230;2023-05-07T11:34:32;2.55;;;1.60;;
51034;SDS011;37062;52.546;13.230;2023-05-07T11:37:01;2.70;;;1.65;;
51034;SDS011;37062;52.546;13.230;2023-05-07T11:39:41;3.67;;;1.92;;
51034;SDS011;37062;52.546;13.230;2023-05-07T11:44:55;2.85;;;1.98;;
51034;SDS011;37062;52.546;13.230;2023-05-07T11:47:24;4.43;;;2.05;;
51034;SDS011;37062;52.546;13.230;2023-05-07T11:49:54;2.28;;;1.65;;
51034;SDS011;37062;52.546;13.230;2023-05-07T11:52:23;1.60;;;1.50;;
51034;SDS011;37062;52.546;13.230;2023-05-07T11:54:52;1.85;;;1.75;;
51034;SDS011;37062;52.546;13.230;2023-05-07T11:57:22;2.95;;;1.83;;
51034;SDS011;37062;52.546;13.230;2023-05-07T11:59:52;2.67;;;1.90;;
51034;SDS011;37062;52.546;13.230;2023-05-07T12:02:20;1.65;;;1.55;;
51034;SDS011;37062;52.546;13.230;2023-05-07T12:04:51;3.15;;;1.90;;
51034;SDS011;37062;52.546;13.230;2023-05-07T12:07:21;3.97;;;1.88;;
51034;SDS011;37062;52.546;13.230;2023-05-07T12:09:51;3.35;;;2.00;;
51034;SDS011;37062;52.546;13.230;2023-05-07T12:12:21;3.28;;;1.88;;
51034;SDS011;37062;52.546;13.230;2023-05-07T12:14:49;4.30;;;1.85;;
51034;SDS011;37062;52.546;13.230;2023-05-07T12:17:17;4.63;;;1.80;;
51034;SDS011;37062;52.546;13.230;2023-05-07T12:19:45;1.88;;;1.50;;
51034;SDS011;37062;52.546;13.230;2023-05-07T12:22:15;2.70;;;2.00;;
51034;SDS011;37062;52.546;13.230;2023-05-07T12:24:44;1.42;;;1.33;;
51034;SDS011;37062;52.546;13.230;2023-05-07T12:27:13;3.00;;;1.52;;
51034;SDS011;37062;52.546;13.230;2023-05-07T12:29:43;1.88;;;1.67;;
51034;SDS011;37062;52.546;13.230;2023-05-07T12:32:13;2.67;;;1.90;;
51034;SDS011;37062;52.546;13.230;2023-05-07T12:34:42;3.05;;;1.90;;
51034;SDS011;37062;52.546;13.230;2023-05-07T12:37:11;2.25;;;1.70;;
51034;SDS011;37062;52.546;13.230;2023-05-07T12:39:46;3.72;;;1.67;;
51034;SDS011;37062;52.546;13.230;2023-05-07T12:42:15;4.47;;;1.65;;
51034;SDS011;37062;52.546;13.230;2023-05-07T12:44:49;2.10;;;1.80;;
51034;SDS011;37062;52.546;13.230;2023-05-07T12:47:18;2.95;;;1.83;;
51034;SDS011;37062;52.546;13.230;2023-05-07T12:49:48;2.22;;;1.80;;
51034;SDS011;37062;52.546;13.230;2023-05-07T12:52:16;2.80;;;2.00;;
51034;SDS011;37062;52.546;13.230;2023-05-07T12:54:48;2.70;;;1.77;;
51034;SDS011;37062;52.546;13.230;2023-05-07T12:57:18;3.70;;;2.38;;
51034;SDS011;37062;52.546;13.230;2023-05-07T12:59:47;1.95;;;1.67;;
51034;SDS011;37062;52.546;13.230;2023-05-07T13:02:16;1.90;;;1.60;;
51034;SDS011;37062;52.546;13.230;2023-05-07T13:04:44;2.42;;;1.50;;
51034;SDS011;37062;52.546;13.230;2023-05-07T13:07:12;3.10;;;1.75;;
51034;SDS011;37062;52.546;13.230;2023-05-07T13:09:40;2.45;;;1.80;;
51034;SDS011;37062;52.546;13.230;2023-05-07T13:12:10;1.70;;;1.58;;
51034;SDS011;37062;52.546;13.230;2023-05-07T13:14:38;1.83;;;1.60;;
51034;SDS011;37062;52.546;13.230;2023-05-07T13:17:06;2.78;;;1.60;;
51034;SDS011;37062;52.546;13.230;2023-05-07T13:19:34;1.73;;;1.50;;
51034;SDS011;37062;52.546;13.230;2023-05-07T13:22:04;3.63;;;1.70;;
51034;SDS011;37062;52.546;13.230;2023-05-07T13:24:32;5.63;;;1.90;;
51034;SDS011;37062;52.546;13.230;2023-05-07T13:27:00;2.53;;;1.80;;
51034;SDS011;37062;52.546;13.230;2023-05-07T13:29:30;2.75;;;1.67;;
51034;SDS011;37062;52.546;13.230;2023-05-07T13:31:58;3.05;;;2.15;;
51034;SDS011;37062;52.546;13.230;2023-05-07T13:34:27;2.38;;;1.48;;
51034;SDS011;37062;52.546;13.230;2023-05-07T13:36:56;1.42;;;1.15;;
51034;SDS011;37062;52.546;13.230;2023-05-07T13:39:24;2.75;;;1.50;;
51034;SDS011;37062;52.546;13.230;2023-05-07T13:41:52;2.28;;;1.40;;
51034;SDS011;37062;52.546;13.230;2023-05-07T13:44:23;1.30;;;1.20;;
51034;SDS011;37062;52.546;13.230;2023-05-07T13:46:52;1.50;;;1.40;;
51034;SDS011;37062;52.546;13.230;2023-05-07T13:49:21;3.63;;;1.40;;
51034;SDS011;37062;52.546;13.230;2023-05-07T13:51:50;3.30;;;1.60;;
51034;SDS011;37062;52.546;13.230;2023-05-07T13:54:18;3.75;;;1.98;;
51034;SDS011;37062;52.546;13.230;2023-05-07T13:56:46;1.77;;;1.42;;
51034;SDS011;37062;52.546;13.230;2023-05-07T13:59:16;2.75;;;1.52;;
51034;SDS011;37062;52.546;13.230;2023-05-07T14:01:44;2.00;;;1.77;;
51034;SDS011;37062;52.546;13.230;2023-05-07T14:04:14;2.65;;;1.50;;
51034;SDS011;37062;52.546;13.230;2023-05-07T14:06:43;2.40;;;1.70;;
51034;SDS011;37062;52.546;13.230;2023-05-07T14:09:11;1.63;;;1.40;;
51034;SDS011;37062;52.546;13.230;2023-05-07T14:11:39;2.22;;;1.67;;
51034;SDS011;37062;52.546;13.230;2023-05-07T14:14:08;1.92;;;1.60;;
51034;SDS011;37062;52.546;13.230;2023-05-07T14:16:37;4.15;;;1.77;;
51034;SDS011;37062;52.546;13.230;2023-05-07T14:19:06;1.23;;;1.10;;
51034;SDS011;37062;52.546;13.230;2023-05-07T14:21:35;1.50;;;1.40;;
51034;SDS011;37062;52.546;13.230;2023-05-07T14:24:04;2.25;;;1.60;;
51034;SDS011;37062;52.546;13.230;2023-05-07T14:26:33;1.88;;;1.50;;
51034;SDS011;37062;52.546;13.230;2023-05-07T14:29:01;1.98;;;1.50;;
51034;SDS011;37062;52.546;13.230;2023-05-07T14:31:30;3.40;;;1.50;;
51034;SDS011;37062;52.546;13.230;2023-05-07T14:33:59;3.90;;;1.70;;
51034;SDS011;37062;52.546;13.230;2023-05-07T14:36:28;1.95;;;1.70;;
51034;SDS011;37062;52.546;13.230;2023-05-07T14:38:59;2.28;;;1.70;;
51034;SDS011;37062;52.546;13.230;2023-05-07T14:41:28;2.42;;;1.90;;
51034;SDS011;37062;52.546;13.230;2023-05-07T14:43:58;2.50;;;1.85;;
51034;SDS011;37062;52.546;13.230;2023-05-07T14:46:26;3.10;;;1.50;;
51034;SDS011;37062;52.546;13.230;2023-05-07T14:48:54;4.05;;;1.60;;
51034;SDS011;37062;52.546;13.230;2023-05-07T14:51:23;2.22;;;1.50;;
51034;SDS011;37062;52.546;13.230;2023-05-07T14:53:52;3.42;;;1.83;;
51034;SDS011;37062;52.546;13.230;2023-05-07T14:56:21;2.28;;;1.60;;
51034;SDS011;37062;52.546;13.230;2023-05-07T14:58:50;2.28;;;1.60;;
51034;SDS011;37062;52.546;13.230;2023-05-07T15:01:19;3.88;;;2.00;;
51034;SDS011;37062;52.546;13.230;2023-05-07T15:03:48;2.28;;;1.48;;
51034;SDS011;37062;52.546;13.230;2023-05-07T15:06:16;1.98;;;1.40;;